createdAt,value
2024-01-04T00:01:24.196Z,90764.63
2024-01-04T00:03:51.011Z,90759.66
2024-01-04T00:06:18.734Z,90765.16
2024-01-04T00:08:45.692Z,90768.03
2024-01-04T00:11:12.498Z,90766.75
2024-01-04T00:13:40.205Z,90767.41
2024-01-04T00:16:13.119Z,90767.50
2024-01-04T00:18:40.106Z,90767.84
2024-01-04T00:21:07.298Z,90767.19
2024-01-04T00:23:36.071Z,90771.72
2024-01-04T00:26:03.069Z,90777.44
2024-01-04T00:28:30.415Z,90771.06
2024-01-04T00:30:57.147Z,90769.34
2024-01-04T00:33:24.437Z,90766.66
2024-01-04T00:35:51.296Z,90770.22
2024-01-04T00:38:18.028Z,90774.84
2024-01-04T00:40:45.902Z,90764.28
2024-01-04T00:43:12.710Z,90770.63
2024-01-04T00:45:39.425Z,90771.47
2024-01-04T00:48:06.835Z,90777.50
2024-01-04T00:50:33.731Z,90778.13
2024-01-04T00:53:09.119Z,90776.75
2024-01-04T00:55:37.051Z,90766.81
2024-01-04T00:58:05.230Z,90767.66
2024-01-04T01:00:32.616Z,90758.84
2024-01-04T01:03:00.453Z,90754.75
2024-01-04T01:05:27.342Z,90756.13
2024-01-04T01:07:54.124Z,90756.91
2024-01-04T01:10:20.953Z,90759.28
2024-01-04T01:12:47.728Z,90757.16
2024-01-04T01:15:14.689Z,90752.63
2024-01-04T01:17:41.788Z,90745.94
2024-01-04T01:20:09.386Z,90746.34
2024-01-04T01:22:36.097Z,90750.59
2024-01-04T01:25:02.843Z,90751.06
2024-01-04T01:27:29.973Z,90749.63
2024-01-04T01:29:56.725Z,90740.84
2024-01-04T01:32:23.471Z,90745.44
2024-01-04T01:34:50.223Z,90737.38
2024-01-04T01:37:17.385Z,90753.28
2024-01-04T01:39:44.093Z,90753.06
2024-01-04T01:42:10.830Z,90755.13
2024-01-04T01:44:37.558Z,90732.38
2024-01-04T01:47:04.535Z,90754.81
2024-01-04T01:49:31.755Z,90754.69
2024-01-04T01:51:59.384Z,90745.75
2024-01-04T01:54:26.463Z,90750.50
2024-01-04T01:56:53.391Z,90755.00
2024-01-04T01:59:27.162Z,90749.19
2024-01-04T02:01:54.903Z,90745.84
2024-01-04T02:04:22.247Z,90739.47
2024-01-04T02:06:49.159Z,90732.50
2024-01-04T02:09:16.574Z,90736.91
2024-01-04T02:11:45.744Z,90747.03
2024-01-04T02:14:12.628Z,90738.50
2024-01-04T02:16:39.386Z,90748.09
2024-01-04T02:19:12.740Z,90742.81
2024-01-04T02:21:39.767Z,90742.31
2024-01-04T02:24:07.263Z,90742.59
2024-01-04T02:26:34.241Z,90753.31
2024-01-04T02:29:01.140Z,90757.69
2024-01-04T02:31:27.891Z,90741.72
2024-01-04T02:33:55.121Z,90746.25
2024-01-04T02:36:22.123Z,90739.75
2024-01-04T02:38:48.892Z,90741.97
2024-01-04T02:41:15.644Z,90737.25
2024-01-04T02:43:42.356Z,90737.66
2024-01-04T02:46:09.077Z,90731.16
2024-01-04T02:48:36.142Z,90739.16
2024-01-04T02:51:03.152Z,90743.47
2024-01-04T02:53:30.122Z,90740.97
2024-01-04T02:55:57.077Z,90731.75
2024-01-04T02:58:23.784Z,90732.66
2024-01-04T03:00:50.929Z,90717.13
2024-01-04T03:03:17.795Z,90711.13
2024-01-04T03:05:45.172Z,90709.66
2024-01-04T03:08:11.974Z,90699.06
2024-01-04T03:10:38.686Z,90711.75
2024-01-04T03:13:05.506Z,90717.50
2024-01-04T03:15:32.710Z,90719.56
2024-01-04T03:17:59.808Z,90724.16
2024-01-04T03:20:26.667Z,90725.91
2024-01-04T03:22:53.467Z,90746.88
2024-01-04T03:25:21.133Z,90746.25
2024-01-04T03:27:47.825Z,90736.50
2024-01-04T03:30:14.772Z,90734.03
2024-01-04T03:32:42.734Z,90743.22
2024-01-04T03:35:09.930Z,90747.75
2024-01-04T03:37:36.633Z,90751.69
2024-01-04T03:40:03.675Z,90751.59
2024-01-04T03:42:30.359Z,90749.06
2024-01-04T03:44:57.161Z,90758.91
2024-01-04T03:47:25.298Z,90746.41
2024-01-04T03:49:52.039Z,90754.78
2024-01-04T03:52:18.785Z,90766.72
2024-01-04T03:54:46.614Z,90757.69
2024-01-04T03:57:13.438Z,90760.28
2024-01-04T03:59:40.320Z,90747.00
2024-01-04T04:02:08.651Z,90741.16
2024-01-04T04:04:35.413Z,90750.97
2024-01-04T04:07:02.662Z,90759.81
2024-01-04T04:09:29.429Z,90752.03
2024-01-04T04:11:56.801Z,90743.16
2024-01-04T04:14:23.567Z,90747.06
2024-01-04T04:16:50.541Z,90751.03
2024-01-04T04:19:17.340Z,90749.72
2024-01-04T04:21:44.188Z,90757.81
2024-01-04T04:24:10.964Z,90747.94
2024-01-04T04:26:37.793Z,90761.16
2024-01-04T04:29:04.629Z,90751.16
2024-01-04T04:31:31.353Z,90753.81
2024-01-04T04:33:58.172Z,90757.19
2024-01-04T04:36:24.969Z,90745.81
2024-01-04T04:38:51.757Z,90751.69
2024-01-04T04:41:18.629Z,90747.75
2024-01-04T04:43:45.442Z,90743.72
2024-01-04T04:46:13.509Z,90746.84
2024-01-04T04:48:40.920Z,90757.19
2024-01-04T04:51:07.917Z,90752.22
2024-01-04T04:53:34.699Z,90772.59
2024-01-04T04:56:01.881Z,90776.25
2024-01-04T04:58:33.064Z,90776.75
2024-01-04T05:01:00.353Z,90784.19
2024-01-04T05:03:27.220Z,90779.41
2024-01-04T05:05:54.638Z,90785.34
2024-01-04T05:08:21.423Z,90780.41
2024-01-04T05:10:48.157Z,90763.72
2024-01-04T05:13:16.581Z,90763.53
2024-01-04T05:15:44.561Z,90755.25
2024-01-04T05:18:12.045Z,90747.34
2024-01-04T05:20:39.015Z,90745.91
2024-01-04T05:23:06.282Z,90754.19
2024-01-04T05:25:33.029Z,90753.59
2024-01-04T05:28:00.256Z,90755.53
2024-01-04T05:30:27.262Z,90758.84
2024-01-04T05:32:54.219Z,90756.25
2024-01-04T05:35:21.593Z,90762.91
2024-01-04T05:37:48.782Z,90767.88
2024-01-04T05:40:15.930Z,90751.94
2024-01-04T05:42:43.825Z,90748.13
2024-01-04T05:45:10.845Z,90763.84
2024-01-04T05:47:38.545Z,90757.13
2024-01-04T05:50:06.307Z,90762.81
2024-01-04T05:52:33.020Z,90759.78
2024-01-04T05:55:00.842Z,90760.13
2024-01-04T05:57:29.184Z,90764.50
2024-01-04T05:59:56.056Z,90754.91
2024-01-04T06:02:23.682Z,90746.47
2024-01-04T06:04:50.450Z,90762.41
2024-01-04T06:07:17.377Z,90754.41
2024-01-04T06:09:44.115Z,90768.78
2024-01-04T06:12:10.968Z,90774.78
2024-01-04T06:14:38.109Z,90769.81
2024-01-04T06:17:04.926Z,90746.41
2024-01-04T06:19:32.469Z,90771.69
2024-01-04T06:21:59.325Z,90782.00
2024-01-04T06:24:26.183Z,90769.09
2024-01-04T06:26:53.564Z,90767.66
2024-01-04T06:29:20.495Z,90771.94
2024-01-04T06:31:47.277Z,90773.56
2024-01-04T06:34:14.259Z,90770.06
2024-01-04T06:36:41.152Z,90778.16
2024-01-04T06:39:09.371Z,90784.66
2024-01-04T06:41:37.328Z,90779.75
2024-01-04T06:44:04.828Z,90785.97
2024-01-04T06:46:31.518Z,90784.91
2024-01-04T06:48:58.525Z,90790.72
2024-01-04T06:51:26.291Z,90786.44
2024-01-04T06:53:53.230Z,90787.19
2024-01-04T06:56:20.887Z,90790.16
2024-01-04T06:58:47.687Z,90801.75
2024-01-04T07:01:14.428Z,90806.38
2024-01-04T07:03:41.842Z,90806.81
2024-01-04T07:06:09.183Z,90815.03
2024-01-04T07:08:35.941Z,90812.44
2024-01-04T07:11:08.883Z,90793.44
2024-01-04T07:13:35.697Z,90793.44
2024-01-04T07:16:06.079Z,90789.56
2024-01-04T07:18:33.607Z,90776.69
2024-01-04T07:21:00.884Z,90779.78
2024-01-04T07:23:27.636Z,90773.56
2024-01-04T07:25:55.784Z,90760.47
2024-01-04T07:28:22.478Z,90760.06
2024-01-04T07:30:50.106Z,90753.56
2024-01-04T07:33:17.063Z,90752.94
2024-01-04T07:35:44.020Z,90765.06
2024-01-04T07:38:10.785Z,90773.34
2024-01-04T07:40:37.785Z,90756.72
2024-01-04T07:43:04.721Z,90760.16
2024-01-04T07:45:31.630Z,90755.31
2024-01-04T07:47:58.566Z,90748.16
2024-01-04T07:50:25.441Z,90741.31
2024-01-04T07:52:52.250Z,90741.94
2024-01-04T07:55:21.770Z,90734.56
2024-01-04T07:57:48.533Z,90730.69
2024-01-04T08:00:15.754Z,90739.31
2024-01-04T08:02:42.575Z,90738.28
2024-01-04T08:05:12.242Z,90739.50
2024-01-04T08:07:39.023Z,90737.41
2024-01-04T08:10:06.464Z,90727.84
2024-01-04T08:12:33.217Z,90725.44
2024-01-04T08:14:59.965Z,90726.16
2024-01-04T08:17:26.848Z,90728.16
2024-01-04T08:19:53.751Z,90743.50
2024-01-04T08:22:20.752Z,90725.50
2024-01-04T08:24:47.473Z,90717.38
2024-01-04T08:27:14.188Z,90719.81
2024-01-04T08:29:41.297Z,90716.06
2024-01-04T08:32:10.054Z,90703.13
2024-01-04T08:34:36.781Z,90694.78
2024-01-04T08:37:03.555Z,90700.13
2024-01-04T08:39:31.474Z,90692.00
2024-01-04T08:41:58.221Z,90701.22
2024-01-04T08:44:25.120Z,90687.84
2024-01-04T08:46:51.836Z,90681.84
2024-01-04T08:49:19.106Z,90685.03
2024-01-04T08:51:46.318Z,90677.25
2024-01-04T08:54:13.273Z,90673.78
2024-01-04T08:56:43.492Z,90676.78
2024-01-04T08:59:10.224Z,90672.59
2024-01-04T09:01:36.989Z,90674.19
2024-01-04T09:04:03.915Z,90670.47
2024-01-04T09:06:32.808Z,90656.38
2024-01-04T09:09:01.074Z,90646.25
2024-01-04T09:11:29.538Z,90631.13
2024-01-04T09:13:56.335Z,90635.22
2024-01-04T09:16:24.146Z,90639.41
2024-01-04T09:18:51.028Z,90637.34
2024-01-04T09:21:17.942Z,90631.28
2024-01-04T09:23:46.230Z,90628.69
2024-01-04T09:26:13.106Z,90618.34
2024-01-04T09:28:39.856Z,90615.13
2024-01-04T09:31:08.184Z,90612.41
2024-01-04T09:33:37.245Z,90602.31
2024-01-04T09:36:04.911Z,90597.25
2024-01-04T09:38:33.769Z,90590.19
2024-01-04T09:41:13.656Z,90580.16
2024-01-04T09:43:42.357Z,90578.53
2024-01-04T09:46:14.264Z,90580.78
2024-01-04T09:48:49.497Z,90573.63
2024-01-04T09:51:18.007Z,90570.41
2024-01-04T09:53:44.731Z,90568.47
2024-01-04T09:56:15.607Z,90556.59
2024-01-04T09:58:42.333Z,90546.97
2024-01-04T10:01:11.262Z,90551.34
2024-01-04T10:03:43.507Z,90548.78
2024-01-04T10:06:12.748Z,90551.13
2024-01-04T10:08:45.740Z,90548.91
2024-01-04T10:11:22.693Z,90540.94
2024-01-04T10:13:50.499Z,90536.06
2024-01-04T10:16:18.355Z,90539.81
2024-01-04T10:18:45.602Z,90542.97
2024-01-04T10:21:12.836Z,90549.34
2024-01-04T10:23:39.574Z,90536.56
2024-01-04T10:26:08.632Z,90540.38
2024-01-04T10:28:40.651Z,90532.38
2024-01-04T10:31:12.655Z,90518.78
2024-01-04T10:33:41.926Z,90510.69
2024-01-04T10:36:10.584Z,90513.03
2024-01-04T10:38:38.135Z,90510.16
2024-01-04T10:41:05.762Z,90521.38
2024-01-04T10:43:34.401Z,90502.22
2024-01-04T10:46:09.609Z,90495.06
2024-01-04T10:48:39.684Z,90495.53
2024-01-04T10:51:10.924Z,90493.28
2024-01-04T10:53:39.194Z,90483.59
2024-01-04T10:56:06.868Z,90485.19
2024-01-04T10:58:43.742Z,90469.47
2024-01-04T11:01:11.077Z,90482.47
2024-01-04T11:03:39.210Z,90465.84
2024-01-04T11:06:06.407Z,90454.75
2024-01-04T11:08:35.276Z,90456.47
2024-01-04T11:11:05.221Z,90454.34
2024-01-04T11:13:32.064Z,90454.13
2024-01-04T11:16:03.225Z,90450.41
2024-01-04T11:18:41.875Z,90453.06
2024-01-04T11:21:21.010Z,90451.41
2024-01-04T11:24:04.592Z,90452.53
2024-01-04T11:26:53.074Z,90441.56
2024-01-04T11:29:21.042Z,90429.34
2024-01-04T11:31:49.811Z,90450.31
2024-01-04T11:34:17.727Z,90433.69
2024-01-04T11:36:44.725Z,90429.81
2024-01-04T11:39:12.004Z,90399.66
2024-01-04T11:41:39.152Z,90411.03
2024-01-04T11:44:17.016Z,90410.13
2024-01-04T11:46:44.539Z,90409.09
2024-01-04T11:49:15.830Z,90412.34
2024-01-04T11:51:50.692Z,90416.44
2024-01-04T11:54:22.362Z,90413.69
2024-01-04T11:56:49.682Z,90421.78
2024-01-04T11:59:23.025Z,90425.75
2024-01-04T12:01:51.114Z,90416.22
2024-01-04T12:04:18.809Z,90436.25
2024-01-04T12:06:49.626Z,90419.78
2024-01-04T12:09:18.516Z,90428.38
2024-01-04T12:11:58.078Z,90418.09
2024-01-04T12:14:27.343Z,90412.22
2024-01-04T12:16:54.208Z,90429.53
2024-01-04T12:19:21.166Z,90398.81
2024-01-04T12:21:48.304Z,90425.06
2024-01-04T12:24:15.722Z,90413.78
2024-01-04T12:26:43.057Z,90400.69
2024-01-04T12:29:10.142Z,90398.13
2024-01-04T12:31:37.356Z,90417.66
2024-01-04T12:34:04.432Z,90409.38
2024-01-04T12:36:32.316Z,90413.09
2024-01-04T12:39:10.811Z,90411.44
2024-01-04T12:41:43.119Z,90402.56
2024-01-04T12:44:09.848Z,90410.88
2024-01-04T12:46:37.106Z,90395.59
2024-01-04T12:49:08.890Z,90401.16
2024-01-04T12:51:39.856Z,90397.13
2024-01-04T12:54:07.293Z,90398.09
2024-01-04T12:56:35.550Z,90392.03
2024-01-04T12:59:04.565Z,90387.72
2024-01-04T13:01:32.370Z,90375.47
2024-01-04T13:04:00.537Z,90398.53
2024-01-04T13:06:29.026Z,90410.66
2024-01-04T13:08:56.288Z,90410.94
2024-01-04T13:11:23.942Z,90406.47
2024-01-04T13:13:51.792Z,90412.06
2024-01-04T13:16:18.680Z,90422.25
2024-01-04T13:18:46.056Z,90411.44
2024-01-04T13:21:13.111Z,90421.09
2024-01-04T13:23:41.636Z,90393.56
2024-01-04T13:26:09.926Z,90371.56
2024-01-04T13:28:38.152Z,90361.31
2024-01-04T13:31:05.361Z,90359.56
2024-01-04T13:33:32.498Z,90350.22
2024-01-04T13:36:00.643Z,90357.97
2024-01-04T13:38:28.268Z,90375.22
2024-01-04T13:40:57.047Z,90379.50
2024-01-04T13:43:24.510Z,90380.53
2024-01-04T13:45:55.358Z,90370.69
2024-01-04T13:48:22.620Z,90388.00
2024-01-04T13:50:49.724Z,90379.69
2024-01-04T13:53:17.195Z,90376.47
2024-01-04T13:55:43.896Z,90374.69
2024-01-04T13:58:11.146Z,90382.88
2024-01-04T14:00:38.468Z,90376.88
2024-01-04T14:03:05.558Z,90374.78
2024-01-04T14:05:36.201Z,90357.84
2024-01-04T14:08:05.371Z,90363.56
2024-01-04T14:10:32.865Z,90362.53
2024-01-04T14:12:59.571Z,90357.28
2024-01-04T14:15:26.606Z,90370.19
2024-01-04T14:17:55.434Z,90354.25
2024-01-04T14:20:25.157Z,90354.59
2024-01-04T14:22:53.326Z,90372.41
2024-01-04T14:25:22.168Z,90360.53
2024-01-04T14:27:49.578Z,90362.19
2024-01-04T14:30:16.792Z,90374.38
2024-01-04T14:32:43.939Z,90371.41
2024-01-04T14:35:12.113Z,90377.13
2024-01-04T14:37:39.962Z,90376.06
2024-01-04T14:40:08.518Z,90376.09
2024-01-04T14:42:35.747Z,90367.94
2024-01-04T14:45:02.677Z,90383.66
2024-01-04T14:47:29.609Z,90384.47
2024-01-04T14:49:56.564Z,90375.50
2024-01-04T14:52:25.438Z,90388.63
2024-01-04T14:54:53.516Z,90386.03
2024-01-04T14:57:20.844Z,90375.19
2024-01-04T14:59:47.825Z,90376.69
2024-01-04T15:02:14.709Z,90380.44
2024-01-04T15:04:41.443Z,90380.09
2024-01-04T15:07:09.549Z,90388.03
2024-01-04T15:09:37.330Z,90392.91
2024-01-04T15:12:04.551Z,90401.19
2024-01-04T15:14:32.115Z,90395.97
2024-01-04T15:17:00.861Z,90404.53
2024-01-04T15:19:30.013Z,90411.28
2024-01-04T15:21:56.823Z,90416.56
2024-01-04T15:24:27.428Z,90416.97
2024-01-04T15:26:54.445Z,90408.75
2024-01-04T15:29:21.445Z,90414.34
2024-01-04T15:31:48.992Z,90418.47
2024-01-04T15:34:15.760Z,90419.22
2024-01-04T15:36:42.616Z,90422.94
2024-01-04T15:39:09.561Z,90423.69
2024-01-04T15:41:37.592Z,90430.06
2024-01-04T15:44:05.064Z,90440.16
2024-01-04T15:46:31.769Z,90435.69
2024-01-04T15:49:01.296Z,90439.41
2024-01-04T15:51:28.481Z,90436.81
2024-01-04T15:53:58.118Z,90437.19
2024-01-04T15:56:27.956Z,90442.00
2024-01-04T15:58:57.640Z,90447.59
2024-01-04T16:01:28.692Z,90456.56
2024-01-04T16:03:55.920Z,90427.81
2024-01-04T16:06:24.153Z,90461.81
2024-01-04T16:08:51.341Z,90458.84
2024-01-04T16:11:18.183Z,90462.56
2024-01-04T16:13:47.212Z,90472.66
2024-01-04T16:16:13.970Z,90477.88
2024-01-04T16:18:40.830Z,90488.72
2024-01-04T16:21:13.757Z,90497.34
2024-01-04T16:23:41.138Z,90503.31
2024-01-04T16:26:18.081Z,90505.94
2024-01-04T16:28:46.003Z,90510.78
2024-01-04T16:31:12.781Z,90524.97
2024-01-04T16:33:39.644Z,90515.25
2024-01-04T16:36:12.697Z,90530.19
2024-01-04T16:38:40.834Z,90541.72
2024-01-04T16:41:12.082Z,90552.16
2024-01-04T16:43:40.533Z,90555.53
2024-01-04T16:46:08.501Z,90559.56
2024-01-04T16:48:35.776Z,90563.66
2024-01-04T16:51:02.738Z,90561.81
2024-01-04T16:53:30.718Z,90564.72
2024-01-04T16:55:57.428Z,90565.88
2024-01-04T16:58:24.278Z,90558.72
2024-01-04T17:00:52.623Z,90566.16
2024-01-04T17:03:19.411Z,90559.41
2024-01-04T17:05:50.040Z,90546.72
2024-01-04T17:08:17.439Z,90553.44
2024-01-04T17:10:44.207Z,90562.00
2024-01-04T17:13:12.618Z,90569.38
2024-01-04T17:15:39.355Z,90574.94
2024-01-04T17:18:08.522Z,90580.84
2024-01-04T17:20:35.407Z,90571.13
2024-01-04T17:23:03.177Z,90574.06
2024-01-04T17:25:29.885Z,90569.25
2024-01-04T17:27:56.562Z,90568.56
2024-01-04T17:30:25.076Z,90563.38
2024-01-04T17:32:54.412Z,90576.47
2024-01-04T17:35:21.538Z,90570.81
2024-01-04T17:37:48.828Z,90577.69
2024-01-04T17:40:15.880Z,90570.81
2024-01-04T17:42:42.700Z,90589.69
2024-01-04T17:45:13.881Z,90591.91
2024-01-04T17:47:46.073Z,90597.69
2024-01-04T17:50:15.757Z,90588.16
2024-01-04T17:52:42.468Z,90589.50
2024-01-04T17:55:11.530Z,90577.53
2024-01-04T17:57:38.326Z,90581.53
2024-01-04T18:00:05.760Z,90590.50
2024-01-04T18:02:32.518Z,90601.34
2024-01-04T18:04:59.366Z,90600.56
2024-01-04T18:07:26.154Z,90573.81
2024-01-04T18:09:52.902Z,90582.22
2024-01-04T18:12:20.634Z,90582.22
2024-01-04T18:14:47.532Z,90584.22
2024-01-04T18:17:16.730Z,90587.28
2024-01-04T18:19:45.992Z,90590.84
2024-01-04T18:22:12.737Z,90599.31
2024-01-04T18:24:42.514Z,90593.78
2024-01-04T18:27:10.371Z,90595.03
2024-01-04T18:29:38.569Z,90592.97
2024-01-04T18:32:06.054Z,90585.47
2024-01-04T18:34:32.985Z,90604.53
2024-01-04T18:36:59.846Z,90617.94
2024-01-04T18:39:26.735Z,90604.16
2024-01-04T18:41:55.040Z,90608.16
2024-01-04T18:44:21.792Z,90598.19
2024-01-04T18:46:54.004Z,90591.91
2024-01-04T18:49:25.300Z,90593.75
2024-01-04T18:51:54.947Z,90600.31
2024-01-04T18:54:21.684Z,90615.97
2024-01-04T18:56:48.449Z,90625.44
2024-01-04T18:59:18.952Z,90638.06
2024-01-04T19:01:46.141Z,90651.94
2024-01-04T19:04:12.886Z,90638.56
2024-01-04T19:06:39.736Z,90648.69
2024-01-04T19:09:06.628Z,90647.50
2024-01-04T19:11:34.064Z,90649.06
2024-01-04T19:14:02.341Z,90637.84
2024-01-04T19:16:29.023Z,90615.44
2024-01-04T19:18:57.492Z,90643.53
2024-01-04T19:21:26.817Z,90635.84
2024-01-04T19:23:53.656Z,90645.38
2024-01-04T19:26:22.209Z,90649.47
2024-01-04T19:28:48.886Z,90658.78
2024-01-04T19:31:16.454Z,90668.47
2024-01-04T19:33:43.353Z,90668.97
2024-01-04T19:36:10.520Z,90663.25
2024-01-04T19:38:37.629Z,90661.56
2024-01-04T19:41:04.624Z,90664.97
2024-01-04T19:43:32.380Z,90658.13
2024-01-04T19:46:06.564Z,90671.31
2024-01-04T19:48:37.410Z,90690.09
2024-01-04T19:51:05.957Z,90685.25
2024-01-04T19:53:32.931Z,90681.84
2024-01-04T19:56:01.707Z,90677.28
2024-01-04T19:58:30.733Z,90682.34
2024-01-04T20:00:58.470Z,90684.88
2024-01-04T20:03:25.388Z,90688.75
2024-01-04T20:05:53.374Z,90684.41
2024-01-04T20:08:20.154Z,90698.88
2024-01-04T20:10:46.822Z,90698.56
2024-01-04T20:13:14.058Z,90701.84
2024-01-04T20:15:42.146Z,90703.81
2024-01-04T20:18:12.532Z,90699.09
2024-01-04T20:20:39.279Z,90697.75
2024-01-04T20:23:06.324Z,90710.88
2024-01-04T20:25:34.624Z,90713.09
2024-01-04T20:28:01.439Z,90720.34
2024-01-04T20:30:28.689Z,90717.56
2024-01-04T20:32:55.491Z,90726.72
2024-01-04T20:35:24.699Z,90726.53
2024-01-04T20:37:51.859Z,90717.13
2024-01-04T20:40:19.209Z,90722.59
2024-01-04T20:42:48.018Z,90723.91
2024-01-04T20:45:15.864Z,90733.38
2024-01-04T20:47:45.172Z,90751.44
2024-01-04T20:50:12.160Z,90756.66
2024-01-04T20:52:38.868Z,90769.88
2024-01-04T20:55:07.280Z,90765.63
2024-01-04T20:57:34.734Z,90773.56
2024-01-04T21:00:01.711Z,90782.44
2024-01-04T21:02:28.430Z,90780.00
2024-01-04T21:04:56.246Z,90785.94
2024-01-04T21:07:22.943Z,90779.00
2024-01-04T21:09:49.658Z,90790.56
2024-01-04T21:12:16.943Z,90772.06
2024-01-04T21:14:46.294Z,90778.41
2024-01-04T21:17:13.155Z,90777.44
2024-01-04T21:19:40.253Z,90782.44
2024-01-04T21:22:07.208Z,90779.00
2024-01-04T21:24:34.008Z,90790.13
2024-01-04T21:27:00.831Z,90791.13
2024-01-04T21:29:27.573Z,90795.47
2024-01-04T21:31:54.296Z,90788.53
2024-01-04T21:34:21.119Z,90780.56
2024-01-04T21:36:48.182Z,90795.03
2024-01-04T21:39:19.482Z,90800.63
2024-01-04T21:41:46.460Z,90808.50
2024-01-04T21:44:13.344Z,90804.75
2024-01-04T21:46:41.531Z,90817.09
2024-01-04T21:49:08.419Z,90814.06
2024-01-04T21:51:35.289Z,90812.75
2024-01-04T21:54:04.467Z,90823.50
2024-01-04T21:56:31.466Z,90827.94
2024-01-04T21:58:58.225Z,90829.00
2024-01-04T22:01:26.348Z,90845.31
2024-01-04T22:03:54.415Z,90827.63
2024-01-04T22:06:22.786Z,90837.63
2024-01-04T22:08:49.898Z,90831.69
2024-01-04T22:11:17.808Z,90835.22
2024-01-04T22:13:45.041Z,90832.34
2024-01-04T22:16:11.768Z,90844.53
2024-01-04T22:18:38.642Z,90839.25
2024-01-04T22:21:05.543Z,90848.66
2024-01-04T22:23:32.373Z,90842.63
2024-01-04T22:25:59.072Z,90843.59
2024-01-04T22:28:26.001Z,90852.13
2024-01-04T22:30:54.141Z,90855.94
2024-01-04T22:33:21.077Z,90854.06
2024-01-04T22:35:49.818Z,90860.44
2024-01-04T22:38:16.844Z,90862.28
2024-01-04T22:40:43.619Z,90865.75
2024-01-04T22:43:10.382Z,90862.53
2024-01-04T22:45:38.469Z,90862.53
2024-01-04T22:48:07.343Z,90862.31
2024-01-04T22:50:34.376Z,90862.63
2024-01-04T22:53:01.095Z,90863.81
2024-01-04T22:55:27.829Z,90834.06
2024-01-04T22:57:54.581Z,90864.47
2024-01-04T23:00:22.720Z,90873.94
2024-01-04T23:02:50.138Z,90868.88
2024-01-04T23:05:16.958Z,90856.06
2024-01-04T23:07:43.732Z,90869.53
2024-01-04T23:10:11.524Z,90879.13
2024-01-04T23:12:38.401Z,90877.41
2024-01-04T23:15:05.821Z,90864.47
2024-01-04T23:17:32.605Z,90870.94
2024-01-04T23:19:59.590Z,90869.31
2024-01-04T23:22:27.239Z,90870.59
2024-01-04T23:24:54.639Z,90846.69
2024-01-04T23:27:21.968Z,90876.88
2024-01-04T23:29:48.720Z,90867.06
2024-01-04T23:32:15.467Z,90867.06
2024-01-04T23:34:42.378Z,90870.28
2024-01-04T23:37:09.874Z,90873.53
2024-01-04T23:39:36.608Z,90879.03
2024-01-04T23:42:03.818Z,90879.09
2024-01-04T23:44:30.958Z,90884.09
2024-01-04T23:46:57.700Z,90891.78
2024-01-04T23:49:24.538Z,90891.72
2024-01-04T23:51:51.499Z,90893.25
2024-01-04T23:54:18.311Z,90894.63
2024-01-04T23:56:45.334Z,90902.63
2024-01-04T23:59:13.578Z,90898.81
